Time;durP1;ratioP1;P1;durP2;ratioP2;P2;SDS_P1;SDS_P2;PMS_P1;PMS_P2;Temp;Humidity;BMP_temperature;BMP_pressure;BME280_temperature;BME280_humidity;BME280_pressure;Samples;Min_cycle;Max_cycle;Signal;HPM_P1;HPM_P2
2020/12/09 00:00:15;;;;;;;140.32;67.40;;;;;;;1.26;100.00;100393.72;5036141;28;20132;-86
2020/12/09 00:02:46;;;;;;;129.57;63.90;;;;;;;1.23;100.00;100404.53;5028634;28;20064;-83
2020/12/09 00:05:15;;;;;;;142.30;67.13;;;;;;;1.23;100.00;100393.97;5038262;28;20084;-81
2020/12/09 00:07:41;;;;;;;132.43;63.90;;;;;;;1.15;100.00;100389.22;5025301;28;20063;-86
2020/12/09 00:10:08;;;;;;;141.55;66.25;;;;;;;1.17;100.00;100389.13;5029587;28;20461;-85
2020/12/09 00:12:34;;;;;;;148.88;70.20;;;;;;;1.20;100.00;100396.84;5040793;28;20062;-82
2020/12/09 00:15:00;;;;;;;132.70;60.40;;;;;;;1.13;100.00;100393.81;5036695;28;20037;-83
2020/12/09 00:17:28;;;;;;;145.80;66.93;;;;;;;1.10;100.00;100394.88;5036631;28;20529;-84
2020/12/09 00:19:55;;;;;;;119.35;55.30;;;;;;;1.06;100.00;100395.22;5045096;28;20070;-82
2020/12/09 00:22:20;;;;;;;122.68;57.45;;;;;;;0.97;100.00;100399.38;5051339;28;20044;-83
2020/12/09 00:24:46;;;;;;;120.10;56.42;;;;;;;0.94;100.00;100398.75;5045155;28;20041;-85
2020/12/09 00:27:11;;;;;;;125.35;59.03;;;;;;;0.83;100.00;100396.88;5043335;28;20040;-86
2020/12/09 00:29:38;;;;;;;119.30;59.95;;;;;;;0.77;100.00;100398.19;5042400;28;20140;-84
2020/12/09 00:32:05;;;;;;;126.68;60.45;;;;;;;0.78;100.00;100404.31;5042035;28;20451;-84
2020/12/09 00:34:30;;;;;;;124.78;57.45;;;;;;;0.70;100.00;100402.22;5041038;28;20041;-83
2020/12/09 00:36:56;;;;;;;107.10;56.15;;;;;;;0.68;100.00;100407.59;5027687;28;20103;-85
2020/12/09 00:39:22;;;;;;;118.25;58.13;;;;;;;0.71;100.00;100418.91;5048189;28;20048;-82
2020/12/09 00:41:48;;;;;;;114.63;58.63;;;;;;;0.65;100.00;100420.19;5044307;28;20435;-84
2020/12/09 00:44:13;;;;;;;127.28;59.08;;;;;;;0.59;100.00;100426.75;5021577;28;20083;-84
2020/12/09 00:46:38;;;;;;;165.70;66.57;;;;;;;0.57;100.00;100427.81;5022213;28;20040;-85
2020/12/09 00:49:04;;;;;;;470.30;84.75;;;;;;;0.45;100.00;100429.53;5026590;28;20037;-84
2020/12/09 00:51:33;;;;;;;320.80;72.07;;;;;;;0.43;100.00;100436.69;5042621;28;20104;-84
2020/12/09 00:53:59;;;;;;;409.50;81.15;;;;;;;0.39;100.00;100436.09;5045167;28;20048;-82
2020/12/09 00:56:24;;;;;;;454.73;90.15;;;;;;;0.41;100.00;100438.63;5023142;28;20038;-84
2020/12/09 00:58:50;;;;;;;483.05;92.03;;;;;;;0.39;100.00;100445.81;5042911;28;20396;-85
2020/12/09 01:01:17;;;;;;;478.17;90.22;;;;;;;0.37;100.00;100445.91;5037479;28;20048;-88
2020/12/09 01:03:42;;;;;;;532.17;95.20;;;;;;;0.38;100.00;100444.13;5042227;28;20052;-85
2020/12/09 01:06:09;;;;;;;484.30;90.47;;;;;;;0.40;100.00;100452.75;5046610;28;20483;-86
2020/12/09 01:08:35;;;;;;;409.42;81.90;;;;;;;0.39;100.00;100448.44;5045057;28;20131;-84
2020/12/09 01:11:01;;;;;;;465.02;88.25;;;;;;;0.43;100.00;100447.25;5042526;28;20036;-84
2020/12/09 01:13:27;;;;;;;524.67;90.13;;;;;;;0.36;100.00;100446.03;5041811;28;20144;-84
2020/12/09 01:15:52;;;;;;;493.90;89.82;;;;;;;0.36;100.00;100456.59;5039629;28;20049;-84
2020/12/09 01:18:18;;;;;;;464.52;86.25;;;;;;;0.35;100.00;100450.47;5040927;28;20041;-85
2020/12/09 01:20:44;;;;;;;453.25;91.55;;;;;;;0.36;100.00;100448.66;5042759;28;20584;-84
2020/12/09 01:23:09;;;;;;;553.67;96.20;;;;;;;0.34;100.00;100455.84;5049253;28;20694;-86
2020/12/09 01:25:35;;;;;;;540.45;97.40;;;;;;;0.35;100.00;100460.19;5059163;28;20041;-87
2020/12/09 01:28:04;;;;;;;591.35;105.00;;;;;;;0.33;100.00;100449.72;5029420;28;20060;-85
2020/12/09 01:30:30;;;;;;;551.77;103.37;;;;;;;0.36;100.00;100459.22;5041716;28;20040;-86
2020/12/09 01:32:58;;;;;;;575.55;105.78;;;;;;;0.37;100.00;100453.81;5039096;28;20132;-84
2020/12/09 01:35:23;;;;;;;508.05;96.80;;;;;;;0.39;100.00;100461.66;5039959;28;20045;-86
2020/12/09 01:37:50;;;;;;;537.05;100.78;;;;;;;0.38;100.00;100463.44;5058666;28;20056;-87
2020/12/09 01:40:16;;;;;;;568.20;102.60;;;;;;;0.39;100.00;100456.38;5026416;28;20399;-82
2020/12/09 01:42:43;;;;;;;494.35;95.45;;;;;;;0.39;100.00;100464.28;5040991;28;20533;-86
2020/12/09 01:45:09;;;;;;;366.67;85.85;;;;;;;0.40;100.00;100465.97;5045963;28;20380;-82
2020/12/09 01:47:35;;;;;;;552.92;105.40;;;;;;;0.38;100.00;100466.09;5045253;28;20048;-85
2020/12/09 01:50:01;;;;;;;355.73;84.20;;;;;;;0.37;100.00;100463.53;5046227;28;20120;-84
2020/12/09 01:52:27;;;;;;;443.20;94.60;;;;;;;0.35;100.00;100457.53;5039121;28;20041;-82
2020/12/09 01:54:53;;;;;;;331.15;82.38;;;;;;;0.33;100.00;100449.72;5028896;28;20556;-84
2020/12/09 01:57:20;;;;;;;499.88;104.50;;;;;;;0.35;100.00;100460.19;5037200;28;20045;-86
2020/12/09 01:59:45;;;;;;;527.10;101.97;;;;;;;0.34;100.00;100456.66;5042987;28;20038;-84
2020/12/09 02:02:11;;;;;;;544.10;107.20;;;;;;;0.37;100.00;100455.63;5051919;28;20047;-82
2020/12/09 02:04:37;;;;;;;470.13;102.13;;;;;;;0.38;100.00;100454.69;5039454;28;20049;-85
2020/12/09 02:07:04;;;;;;;588.50;112.78;;;;;;;0.39;100.00;100464.28;5045699;28;20533;-86
2020/12/09 02:09:30;;;;;;;503.85;101.70;;;;;;;0.40;100.00;100458.03;5040635;28;20029;-82
2020/12/09 02:11:57;;;;;;;476.55;97.43;;;;;;;0.36;100.00;100464.50;5042276;28;20041;-85
2020/12/09 02:14:23;;;;;;;436.73;94.75;;;;;;;0.31;100.00;100461.31;5027626;28;20415;-84
2020/12/09 02:16:56;;;;;;;529.83;99.68;;;;;;;0.29;100.00;100468.50;5054248;28;20052;-85
2020/12/09 02:19:23;;;;;;;554.42;104.25;;;;;;;0.24;100.00;100473.28;5041283;28;20059;-85
2020/12/09 02:21:49;;;;;;;546.65;103.53;;;;;;;0.23;100.00;100467.13;5042183;28;20403;-85
2020/12/09 02:24:15;;;;;;;401.90;92.00;;;;;;;0.19;100.00;100470.94;5038107;28;20048;-84
2020/12/09 02:26:47;;;;;;;497.83;97.07;;;;;;;0.12;100.00;100475.81;5025074;28;20118;-82
2020/12/09 02:29:15;;;;;;;462.20;95.82;;;;;;;0.11;100.00;100478.53;5032273;28;20049;-84
2020/12/09 02:31:41;;;;;;;531.97;101.20;;;;;;;0.10;100.00;100490.03;5042934;28;20626;-85
2020/12/09 02:34:09;;;;;;;477.02;98.35;;;;;;;0.10;100.00;100490.88;5026202;28;20120;-82
2020/12/09 02:36:35;;;;;;;353.42;87.50;;;;;;;0.10;100.00;100488.25;5018016;28;20105;-86
2020/12/09 02:39:04;;;;;;;530.35;105.28;;;;;;;0.07;100.00;100484.97;5037399;28;20045;-84
2020/12/09 02:41:29;;;;;;;408.88;86.90;;;;;;;0.02;100.00;100480.00;5030913;28;20041;-82
2020/12/09 02:43:54;;;;;;;503.33;96.20;;;;;;;0.00;100.00;100479.28;5024229;28;20377;-83
2020/12/09 02:46:21;;;;;;;482.92;97.97;;;;;;;0.05;100.00;100473.69;5025321;28;20037;-84
2020/12/09 02:48:46;;;;;;;316.60;81.88;;;;;;;0.01;100.00;100473.06;5026624;28;20050;-83
2020/12/09 02:51:13;;;;;;;387.45;86.85;;;;;;;-0.03;100.00;100469.78;5023989;28;20368;-82
2020/12/09 02:53:38;;;;;;;304.63;81.68;;;;;;;-0.04;100.00;100475.16;5042057;28;20084;-85
2020/12/09 02:56:03;;;;;;;361.40;91.22;;;;;;;0.01;100.00;100470.41;5030145;28;20568;-85
2020/12/09 02:58:29;;;;;;;354.27;89.53;;;;;;;0.03;100.00;100465.88;5027040;28;20037;-83
2020/12/09 03:00:56;;;;;;;328.48;87.43;;;;;;;0.05;100.00;100471.03;5020851;28;20049;-85
2020/12/09 03:03:21;;;;;;;386.77;90.07;;;;;;;0.04;100.00;100462.28;5043949;28;20400;-82
2020/12/09 03:05:47;;;;;;;350.63;84.60;;;;;;;0.02;100.00;100464.19;5030552;28;20042;-82
2020/12/09 03:08:12;;;;;;;400.33;87.45;;;;;;;-0.02;100.00;100467.97;5025417;28;20064;-82
2020/12/09 03:10:37;;;;;;;438.50;93.05;;;;;;;-0.05;100.00;100470.84;5040719;28;20437;-83
2020/12/09 03:13:03;;;;;;;352.83;87.40;;;;;;;-0.06;100.00;100472.63;5030103;28;20040;-84
2020/12/09 03:15:28;;;;;;;421.23;94.93;;;;;;;-0.09;100.00;100467.53;5012112;28;20127;-83
2020/12/09 03:17:53;;;;;;;399.33;92.68;;;;;;;-0.07;100.00;100472.72;5031371;28;20486;-83
2020/12/09 03:20:19;;;;;;;362.70;93.10;;;;;;;-0.09;100.00;100464.91;5014843;28;20087;-85
2020/12/09 03:22:44;;;;;;;355.27;94.95;;;;;;;-0.06;100.00;100469.13;5009538;28;20045;-85
2020/12/09 03:25:10;;;;;;;426.95;102.45;;;;;;;0.00;100.00;100471.38;5040923;28;20140;-82
2020/12/09 03:27:35;;;;;;;372.20;98.40;;;;;;;0.03;100.00;100467.66;5051748;28;20439;-84
2020/12/09 03:30:01;;;;;;;449.08;105.75;;;;;;;0.04;100.00;100478.13;5039228;28;20044;-85
2020/12/09 03:32:26;;;;;;;411.27;99.93;;;;;;;0.05;100.00;100482.44;5051298;28;20566;-86
2020/12/09 03:34:54;;;;;;;362.13;93.82;;;;;;;0.02;100.00;100480.00;5036628;28;20470;-83
2020/12/09 03:37:20;;;;;;;304.38;88.53;;;;;;;0.01;100.00;100486.25;5037096;28;20525;-86
2020/12/09 03:39:46;;;;;;;354.10;92.05;;;;;;;0.02;100.00;100489.72;5053126;28;20426;-85
2020/12/09 03:42:13;;;;;;;265.27;85.22;;;;;;;0.00;100.00;100484.56;5028746;28;20443;-85
2020/12/09 03:44:38;;;;;;;210.52;79.50;;;;;;;0.00;100.00;100487.19;5037098;28;20396;-86
2020/12/09 03:47:05;;;;;;;203.88;75.03;;;;;;;-0.02;100.00;100478.53;5038188;28;20064;-87
2020/12/09 03:49:31;;;;;;;229.82;80.57;;;;;;;-0.04;100.00;100480.44;5035498;28;20116;-84
2020/12/09 03:51:56;;;;;;;221.32;79.53;;;;;;;-0.05;100.00;100481.38;5037738;28;20399;-84
2020/12/09 03:54:24;;;;;;;202.15;75.00;;;;;;;-0.05;100.00;100491.94;5041531;28;20033;-84
2020/12/09 03:56:49;;;;;;;208.73;78.40;;;;;;;-0.05;100.00;100494.56;5037061;28;20491;-83
2020/12/09 03:59:15;;;;;;;206.13;77.03;;;;;;;-0.07;100.00;100496.47;5040088;28;20052;-82
2020/12/09 04:01:41;;;;;;;204.70;77.20;;;;;;;-0.07;100.00;100496.47;5028432;28;20045;-86
2020/12/09 04:04:06;;;;;;;224.80;76.38;;;;;;;-0.10;100.00;100492.22;5038492;28;20450;-83
2020/12/09 04:06:32;;;;;;;202.70;74.55;;;;;;;-0.12;100.00;100494.13;5050074;28;20053;-82
2020/12/09 04:08:58;;;;;;;222.00;76.55;;;;;;;-0.12;100.00;100495.91;5049994;28;20147;-84
2020/12/09 04:11:23;;;;;;;173.75;70.15;;;;;;;-0.12;100.00;100494.13;5047175;28;20566;-83
2020/12/09 04:13:48;;;;;;;186.82;73.25;;;;;;;-0.08;100.00;100502.69;5044396;28;20033;-84
2020/12/09 04:16:14;;;;;;;166.93;68.72;;;;;;;-0.08;100.00;100508.81;5034977;28;20038;-86
2020/12/09 04:18:40;;;;;;;157.30;65.60;;;;;;;-0.11;100.00;100501.09;5021249;28;20128;-86
2020/12/09 04:21:05;;;;;;;175.25;67.10;;;;;;;-0.16;100.00;100505.84;5064754;28;20045;-85
2020/12/09 04:23:31;;;;;;;172.60;68.07;;;;;;;-0.15;100.00;100509.31;5047869;28;20051;-83
2020/12/09 04:25:56;;;;;;;182.13;66.57;;;;;;;-0.18;100.00;100506.88;5044044;28;20052;-87
2020/12/09 04:28:22;;;;;;;203.70;68.50;;;;;;;-0.20;100.00;100507.00;5048051;28;20033;-83
2020/12/09 04:30:48;;;;;;;209.40;70.88;;;;;;;-0.20;100.00;100517.56;5028088;28;20401;-84
2020/12/09 04:33:13;;;;;;;194.38;69.78;;;;;;;-0.20;100.00;100516.69;5034964;28;20041;-87
2020/12/09 04:35:39;;;;;;;220.25;69.10;;;;;;;-0.21;100.00;100515.84;5022544;28;20484;-86
2020/12/09 04:38:05;;;;;;;267.50;74.78;;;;;;;-0.27;100.00;100511.81;5029586;28;20449;-83
2020/12/09 04:40:31;;;;;;;268.23;73.22;;;;;;;-0.28;100.00;100520.69;5042022;28;20033;-82
2020/12/09 04:43:02;;;;;;;278.15;74.38;;;;;;;-0.28;100.00;100515.41;5050880;28;20057;-85
2020/12/09 04:45:30;;;;;;;457.90;90.00;;;;;;;-0.30;100.00;100516.47;5028691;28;20064;-83
2020/12/09 04:48:15;;;;;;;255.03;75.17;;;;;;;-0.32;100.00;100513.91;5029363;28;20495;-86
2020/12/09 04:51:18;;;;;;;171.90;62.90;;;;;;;-0.40;100.00;100521.50;5043092;28;20425;-84
2020/12/09 04:53:50;;;;;;;166.02;65.30;;;;;;;-0.34;100.00;100518.47;5051594;28;20469;-83
2020/12/09 04:56:26;;;;;;;175.80;64.57;;;;;;;-0.34;100.00;100523.72;5047727;28;20132;-85
2020/12/09 04:58:55;;;;;;;184.43;70.35;;;;;;;-0.24;100.00;100516.88;5039981;28;20135;-82
2020/12/09 05:01:20;;;;;;;214.57;76.13;;;;;;;-0.16;100.00;100520.81;5056737;28;20041;-85
2020/12/09 05:03:48;;;;;;;187.98;69.70;;;;;;;-0.16;100.00;100518.19;5041913;28;20048;-85
2020/12/09 05:06:15;;;;;;;207.00;73.13;;;;;;;-0.14;100.00;100525.06;5042170;28;20124;-83
2020/12/09 05:08:57;;;;;;;208.35;72.10;;;;;;;-0.10;100.00;100517.78;5041969;28;20069;-86
2020/12/09 05:11:25;;;;;;;329.13;91.13;;;;;;;-0.02;100.00;100515.47;5048347;28;20119;-82
2020/12/09 05:13:54;;;;;;;328.88;84.47;;;;;;;0.06;100.00;100525.50;5036613;28;20428;-82
2020/12/09 05:16:20;;;;;;;;;;;;;;;0.17;100.00;100521.19;5044943;28;20033;-84
2020/12/09 05:18:46;;;;;;;268.58;75.30;;;;;;;0.10;100.00;100530.47;5043988;28;19928;-84
2020/12/09 05:21:21;;;;;;;345.70;92.65;;;;;;;0.17;100.00;100526.47;5045191;28;20140;-84
2020/12/09 05:23:59;;;;;;;311.67;83.35;;;;;;;0.20;100.00;100531.56;5037513;28;20120;-82
2020/12/09 05:26:32;;;;;;;208.87;75.77;;;;;;;0.21;100.00;100533.22;5042313;28;20041;-83
2020/12/09 05:29:11;;;;;;;263.48;79.13;;;;;;;0.16;100.00;100545.88;5041255;28;20645;-84
2020/12/09 05:31:39;;;;;;;321.92;86.35;;;;;;;0.14;100.00;100539.84;5047959;28;20045;-84
2020/12/09 05:34:28;;;;;;;324.17;84.55;;;;;;;0.09;100.00;100543.78;5038557;28;20048;-85
2020/12/09 05:36:56;;;;;;;415.83;93.28;;;;;;;0.06;100.00;100547.47;5035585;28;20098;-84
2020/12/09 05:39:22;;;;;;;364.70;86.60;;;;;;;0.04;100.00;100543.25;5056314;28;20056;-86
2020/12/09 05:41:48;;;;;;;423.45;97.75;;;;;;;0.04;100.00;100535.31;5035886;28;20519;-83
2020/12/09 05:44:13;;;;;;;487.08;100.45;;;;;;;-0.01;100.00;100540.91;5040916;28;20091;-84
2020/12/09 05:47:03;;;;;;;357.13;89.97;;;;;;;0.07;100.00;100537.75;5022235;28;20036;-83
2020/12/09 05:49:37;;;;;;;402.75;95.68;;;;;;;0.07;100.00;100546.50;5030801;28;20037;-83
2020/12/09 05:52:15;;;;;;;329.00;89.13;;;;;;;0.07;100.00;100550.94;5035912;28;20518;-84
2020/12/09 05:54:45;;;;;;;294.83;83.93;;;;;;;0.06;100.00;100546.59;5046628;28;20049;-82
2020/12/09 05:57:13;;;;;;;352.55;89.63;;;;;;;0.06;100.00;100543.97;5047914;28;20044;-83
2020/12/09 05:59:48;;;;;;;421.60;92.35;;;;;;;0.04;100.00;100552.00;5038578;28;20172;-83
2020/12/09 06:02:21;;;;;;;378.27;91.20;;;;;;;0.02;100.00;100551.25;5044013;28;20534;-83
2020/12/09 06:04:51;;;;;;;475.38;96.65;;;;;;;-0.04;100.00;100552.50;5026092;28;20426;-84
2020/12/09 06:07:18;;;;;;;408.35;93.22;;;;;;;-0.09;100.00;100553.75;5042939;28;20052;-83
2020/12/09 06:10:02;;;;;;;433.83;95.03;;;;;;;-0.10;100.00;100557.34;5042790;28;20041;-83
2020/12/09 06:12:28;;;;;;;521.53;105.55;;;;;;;-0.11;100.00;100563.56;5039890;28;20454;-83
2020/12/09 06:15:11;;;;;;;444.73;95.20;;;;;;;-0.17;100.00;100564.81;5025607;28;20037;-83
2020/12/09 06:17:37;;;;;;;357.65;89.25;;;;;;;-0.22;100.00;100566.06;5044596;28;20060;-83
2020/12/09 06:20:02;;;;;;;476.50;96.72;;;;;;;-0.28;100.00;100568.16;5036675;28;20543;-83
2020/12/09 06:22:31;;;;;;;396.67;92.78;;;;;;;-0.31;100.00;100576.28;5014823;28;20045;-83
2020/12/09 06:25:03;;;;;;;356.75;84.65;;;;;;;-0.35;100.00;100566.84;5045859;28;20483;-82
2020/12/09 06:27:32;;;;;;;447.58;93.05;;;;;;;-0.35;100.00;100566.00;5040959;28;20073;-84
2020/12/09 06:29:57;;;;;;;359.73;86.28;;;;;;;-0.37;100.00;100568.75;5024411;28;20042;-82
2020/12/09 06:32:23;;;;;;;437.70;94.25;;;;;;;-0.39;100.00;100567.16;5034939;28;20037;-83
2020/12/09 06:35:05;;;;;;;422.25;92.75;;;;;;;-0.41;100.00;100575.16;4984895;28;20124;-83
2020/12/09 06:37:30;;;;;;;539.45;98.70;;;;;;;-0.47;100.00;100575.56;5040174;28;20037;-82
2020/12/09 06:40:12;;;;;;;492.08;95.03;;;;;;;-0.47;100.00;100579.03;5010170;28;20090;-83
2020/12/09 06:42:38;;;;;;;402.17;90.78;;;;;;;-0.45;100.00;100568.41;5053419;28;20061;-83
2020/12/09 06:45:05;;;;;;;448.33;94.32;;;;;;;-0.49;100.00;100574.81;5041610;28;20065;-83
2020/12/09 06:47:31;;;;;;;432.45;94.97;;;;;;;-0.44;100.00;100577.16;5043270;28;20091;-83
2020/12/09 06:49:57;;;;;;;478.75;101.93;;;;;;;-0.41;100.00;100580.44;5040063;28;20057;-82
2020/12/09 06:52:31;;;;;;;515.50;106.53;;;;;;;-0.40;100.00;100581.28;5025084;28;20057;-83
2020/12/09 06:54:57;;;;;;;533.83;106.68;;;;;;;-0.46;100.00;100586.03;5029379;28;20052;-82
2020/12/09 06:57:38;;;;;;;434.50;96.72;;;;;;;-0.47;100.00;100591.38;5032274;28;20053;-83
2020/12/09 07:00:22;;;;;;;480.48;101.43;;;;;;;-0.46;100.00;100585.19;5016222;28;20069;-83
2020/12/09 07:02:49;;;;;;;466.23;101.50;;;;;;;-0.47;100.00;100591.38;5045342;28;20099;-83
2020/12/09 07:05:19;;;;;;;511.27;108.13;;;;;;;-0.46;100.00;100596.56;5047847;28;20037;-83
2020/12/09 07:07:50;;;;;;;468.05;101.15;;;;;;;-0.48;100.00;100603.72;5036646;28;20128;-83
2020/12/09 07:10:20;;;;;;;586.22;109.68;;;;;;;-0.42;100.00;100601.63;5027917;28;20081;-83
2020/12/09 07:12:50;;;;;;;495.65;103.10;;;;;;;-0.42;100.00;100610.38;5019906;28;20037;-83
2020/12/09 07:15:16;;;;;;;533.65;109.45;;;;;;;-0.42;100.00;100613.03;5021291;28;20052;-83
2020/12/09 07:17:42;;;;;;;482.95;102.13;;;;;;;-0.43;100.00;100621.91;5041026;28;20132;-83
2020/12/09 07:20:09;;;;;;;385.83;93.93;;;;;;;-0.43;100.00;100624.53;5012037;28;20045;-83
2020/12/09 07:22:34;;;;;;;436.15;98.18;;;;;;;-0.36;100.00;100625.81;5041793;28;20090;-83
2020/12/09 07:25:00;;;;;;;450.48;100.25;;;;;;;-0.34;100.00;100620.47;5028366;28;20045;-83
2020/12/09 07:27:27;;;;;;;372.65;96.35;;;;;;;-0.33;100.00;100622.97;5043349;28;20056;-83
2020/12/09 07:29:56;;;;;;;331.33;86.50;;;;;;;-0.34;100.00;100621.28;5047001;28;20072;-83
2020/12/09 07:32:22;;;;;;;295.73;82.05;;;;;;;-0.34;100.00;100626.56;5043694;28;20044;-83
2020/12/09 07:35:00;;;;;;;359.80;90.63;;;;;;;-0.32;100.00;100621.19;5039373;28;20396;-83
2020/12/09 07:37:38;;;;;;;419.83;96.47;;;;;;;-0.30;100.00;100628.06;5043806;28;20492;-83
2020/12/09 07:40:16;;;;;;;406.38;92.78;;;;;;;-0.32;100.00;100622.03;5039052;28;20107;-83
2020/12/09 07:42:42;;;;;;;403.50;93.57;;;;;;;-0.31;100.00;100633.44;5062195;28;20308;-83
2020/12/09 07:45:16;;;;;;;495.80;106.30;;;;;;;-0.29;100.00;100624.50;5038931;28;20129;-83
2020/12/09 07:47:42;;;;;;;445.98;101.63;;;;;;;-0.27;100.00;100627.00;5045052;28;20491;-83
2020/12/09 07:50:08;;;;;;;471.17;103.50;;;;;;;-0.27;100.00;100622.56;5051084;28;20041;-83
2020/12/09 07:52:38;;;;;;;503.67;108.35;;;;;;;-0.26;100.00;100626.06;5044870;28;20033;-82
2020/12/09 07:55:12;;;;;;;462.63;102.95;;;;;;;-0.19;100.00;100630.00;5037182;28;20046;-83
2020/12/09 07:57:39;;;;;;;502.30;113.43;;;;;;;-0.15;100.00;100620.09;5030285;28;20045;-82
2020/12/09 08:00:10;;;;;;;482.13;110.53;;;;;;;-0.10;100.00;100615.38;5020593;28;20461;-82
2020/12/09 08:02:37;;;;;;;452.80;105.85;;;;;;;-0.09;100.00;100619.69;5040610;28;20569;-83
2020/12/09 08:05:10;;;;;;;400.15;97.28;;;;;;;-0.10;100.00;100628.56;5022049;28;20045;-83
2020/12/09 08:07:57;;;;;;;407.60;99.45;;;;;;;-0.07;100.00;100628.34;5043969;28;20060;-83
2020/12/09 08:10:34;;;;;;;609.80;121.57;;;;;;;-0.01;100.00;100630.59;5049459;28;20037;-83
2020/12/09 08:13:12;;;;;;;553.60;114.45;;;;;;;0.02;100.00;100633.03;5047250;28;20512;-83
2020/12/09 08:15:40;;;;;;;625.53;123.00;;;;;;;0.04;100.00;100625.88;5049280;28;20127;-83
2020/12/09 08:18:06;;;;;;;525.72;109.88;;;;;;;0.00;100.00;100619.13;5038689;28;20069;-83
2020/12/09 08:20:44;;;;;;;563.35;115.47;;;;;;;0.04;100.00;100625.03;5049013;28;20391;-83
2020/12/09 08:23:10;;;;;;;522.13;112.78;;;;;;;0.04;100.00;100625.88;5027234;28;20506;-83
2020/12/09 08:25:47;;;;;;;600.67;119.20;;;;;;;0.11;100.00;100635.06;5052221;28;20045;-83
2020/12/09 08:28:13;;;;;;;648.35;126.55;;;;;;;0.16;100.00;100640.88;5046596;28;20384;-83
2020/12/09 08:30:39;;;;;;;445.58;96.43;;;;;;;0.23;100.00;100641.31;5054504;28;20036;-83
2020/12/09 08:33:10;;;;;;;574.75;115.22;;;;;;;0.25;100.00;100634.16;5054633;28;20036;-83
2020/12/09 08:35:59;;;;;;;568.90;118.75;;;;;;;0.29;100.00;100629.50;5041555;28;20514;-83
2020/12/09 08:38:28;;;;;;;;;;;;;;;0.30;100.00;100628.56;5038706;28;20049;-83
2020/12/09 08:40:59;;;;;;;397.83;94.90;;;;;;;0.27;100.00;100626.97;5049077;28;19923;-82
2020/12/09 08:43:26;;;;;;;466.40;108.45;;;;;;;0.26;100.00;100624.44;5043601;28;20049;-83
2020/12/09 08:45:53;;;;;;;312.33;76.28;;;;;;;0.27;100.00;100629.63;5036213;28;20045;-84
2020/12/09 08:48:19;;;;;;;332.42;83.45;;;;;;;0.32;100.00;100629.34;5047004;28;20029;-82
2020/12/09 08:50:49;;;;;;;433.35;100.88;;;;;;;0.37;100.00;100632.47;5044242;28;20862;-83
2020/12/09 08:53:15;;;;;;;328.83;82.47;;;;;;;0.36;100.00;100636.09;5044743;28;20038;-84
2020/12/09 08:55:42;;;;;;;305.95;76.28;;;;;;;0.28;100.00;100638.38;5057645;28;20493;-84
2020/12/09 08:58:09;;;;;;;350.88;81.85;;;;;;;0.28;100.00;100643.66;5043822;28;20064;-82
2020/12/09 09:00:36;;;;;;;359.80;83.70;;;;;;;0.26;100.00;100642.91;5048539;28;20450;-83
2020/12/09 09:03:03;;;;;;;397.95;85.13;;;;;;;0.23;100.00;100641.31;5042466;28;20049;-83
2020/12/09 09:05:28;;;;;;;533.40;107.47;;;;;;;0.27;100.00;100645.47;5041289;28;20056;-82
2020/12/09 09:07:53;;;;;;;449.65;90.10;;;;;;;0.26;100.00;100650.81;5033464;28;20048;-83
2020/12/09 09:10:20;;;;;;;565.88;110.78;;;;;;;0.29;100.00;100651.50;5032993;28;20086;-83
2020/12/09 09:12:45;;;;;;;448.23;94.20;;;;;;;0.29;100.00;100651.50;5014745;28;20049;-84
2020/12/09 09:15:10;;;;;;;461.02;92.10;;;;;;;0.34;100.00;100646.72;5030241;28;20048;-84
2020/12/09 09:17:36;;;;;;;390.48;82.75;;;;;;;0.35;100.00;100642.31;5039027;28;20049;-82
2020/12/09 09:20:05;;;;;;;520.05;105.55;;;;;;;0.38;100.00;100642.97;5039090;28;20064;-84
2020/12/09 09:22:31;;;;;;;541.22;106.25;;;;;;;0.38;100.00;100647.41;5046889;28;20064;-81
2020/12/09 09:24:57;;;;;;;533.10;103.50;;;;;;;0.38;100.00;100655.31;5036974;28;20791;-84
2020/12/09 09:27:22;;;;;;;565.20;116.60;;;;;;;0.42;100.00;100657.63;5043535;28;20135;-83
2020/12/09 09:29:49;;;;;;;502.85;112.25;;;;;;;0.47;100.00;100659.97;5042752;28;20403;-84
2020/12/09 09:32:14;;;;;;;620.47;130.23;;;;;;;0.50;100.00;100657.13;5006467;28;20091;-84
2020/12/09 09:34:39;;;;;;;441.95;92.00;;;;;;;0.47;100.00;100654.69;5039946;28;20116;-83
2020/12/09 09:37:08;;;;;;;536.22;99.97;;;;;;;0.46;100.00;100660.91;5022534;28;20052;-84
2020/12/09 09:39:36;;;;;;;530.58;102.55;;;;;;;0.48;100.00;100661.66;5020967;28;20073;-83
2020/12/09 09:42:04;;;;;;;566.15;118.28;;;;;;;0.53;100.00;100664.84;5019808;28;20041;-83
2020/12/09 09:44:29;;;;;;;544.70;109.25;;;;;;;0.57;100.00;100673.41;5020278;28;20044;-83
2020/12/09 09:47:02;;;;;;;461.17;92.75;;;;;;;0.58;100.00;100673.31;5022075;28;20042;-83
2020/12/09 09:49:27;;;;;;;420.60;89.03;;;;;;;0.57;100.00;100676.88;5025001;28;20403;-83
2020/12/09 09:51:53;;;;;;;482.92;101.05;;;;;;;0.58;100.00;100678.59;5006893;28;20045;-83
2020/12/09 09:54:19;;;;;;;575.20;122.10;;;;;;;0.63;100.00;100676.50;5040475;28;20037;-83
2020/12/09 09:56:45;;;;;;;473.25;105.15;;;;;;;0.66;100.00;100686.84;5018365;28;20069;-83
2020/12/09 09:59:10;;;;;;;654.88;135.13;;;;;;;0.72;100.00;100682.94;5046533;28;20094;-83
2020/12/09 10:01:37;;;;;;;406.40;95.68;;;;;;;0.78;100.00;100684.31;5037736;28;20044;-83
2020/12/09 10:04:06;;;;;;;451.27;102.22;;;;;;;0.81;100.00;100684.97;5040240;28;20041;-83
2020/12/09 10:06:31;;;;;;;;;;;;;;;0.82;100.00;100691.94;5043113;28;20045;-84
2020/12/09 10:08:58;;;;;;;415.48;95.43;;;;;;;0.76;100.00;100678.28;5042731;28;19932;-83
2020/12/09 10:11:23;;;;;;;464.17;110.65;;;;;;;0.78;100.00;100679.03;5041291;28;20172;-83
2020/12/09 10:13:48;;;;;;;463.25;113.30;;;;;;;0.85;100.00;100680.31;5011139;28;20162;-84
2020/12/09 10:16:24;;;;;;;483.55;116.40;;;;;;;0.87;100.00;100683.69;5028922;28;20044;-83
2020/12/09 10:18:51;;;;;;;496.90;117.20;;;;;;;0.89;100.00;100687.06;5035377;28;20063;-83
2020/12/09 10:21:24;;;;;;;446.35;101.65;;;;;;;0.89;100.00;100689.69;5034938;28;20057;-83
2020/12/09 10:23:50;;;;;;;454.13;100.40;;;;;;;0.92;100.00;100692.13;5022436;28;20134;-83
2020/12/09 10:26:16;;;;;;;445.15;104.28;;;;;;;0.90;100.00;100702.81;5029762;28;20037;-84
2020/12/09 10:28:46;;;;;;;411.15;92.90;;;;;;;0.86;100.00;100698.72;5038639;28;20054;-83
2020/12/09 10:31:13;;;;;;;442.95;100.35;;;;;;;0.83;100.00;100693.59;5045650;28;20104;-83
2020/12/09 10:33:41;;;;;;;414.38;97.22;;;;;;;0.87;100.00;100694.25;5029745;28;20385;-84
2020/12/09 10:36:06;;;;;;;477.55;111.00;;;;;;;0.93;100.00;100687.72;5040970;28;20099;-83
2020/12/09 10:38:34;;;;;;;427.08;103.78;;;;;;;0.95;100.00;100691.09;5039140;28;20053;-83
2020/12/09 10:41:00;;;;;;;419.08;93.03;;;;;;;0.94;100.00;100687.59;5032563;28;20045;-83
2020/12/09 10:43:26;;;;;;;405.00;92.65;;;;;;;0.88;100.00;100686.22;5049776;28;20091;-84
2020/12/09 10:45:52;;;;;;;411.25;104.10;;;;;;;0.89;100.00;100674.72;5044779;28;20101;-83
2020/12/09 10:48:17;;;;;;;410.02;92.85;;;;;;;0.87;100.00;100668.69;5040061;28;20048;-83
2020/12/09 10:50:45;;;;;;;437.70;96.10;;;;;;;0.89;100.00;100665.91;5040753;28;20446;-84
2020/12/09 10:53:11;;;;;;;398.60;99.30;;;;;;;0.93;100.00;100674.50;5044472;28;20037;-84
2020/12/09 10:55:38;;;;;;;413.50;103.97;;;;;;;0.92;100.00;100675.44;5051056;28;20065;-84
2020/12/09 10:58:04;;;;;;;409.40;102.57;;;;;;;0.90;100.00;100673.75;5044488;28;20060;-84
2020/12/09 11:00:30;;;;;;;446.23;103.85;;;;;;;0.94;100.00;100677.03;5027390;28;20595;-83